sensor_id;sensor_type;location;lat;lon;timestamp;P1;durP1;ratioP1;P2;durP2;ratioP2
57565;SDS011;63999;43.882;-0.310;2023-04-24T00:02:11;5.85;;;1.67;;
57565;SDS011;63999;43.882;-0.310;2023-04-24T00:04:41;9.20;;;1.83;;
57565;SDS011;63999;43.882;-0.310;2023-04-24T00:07:12;5.90;;;1.67;;
57565;SDS011;63999;43.882;-0.310;2023-04-24T00:09:39;6.40;;;1.65;;
57565;SDS011;63999;43.882;-0.310;2023-04-24T00:12:05;7.30;;;1.70;;
57565;SDS011;63999;43.882;-0.310;2023-04-24T00:14:31;5.30;;;1.67;;
57565;SDS011;63999;43.882;-0.310;2023-04-24T00:16:57;7.93;;;1.98;;
57565;SDS011;63999;43.882;-0.310;2023-04-24T00:19:23;7.85;;;1.65;;
57565;SDS011;63999;43.882;-0.310;2023-04-24T00:21:52;6.68;;;1.63;;
57565;SDS011;63999;43.882;-0.310;2023-04-24T00:24:18;4.78;;;1.52;;
57565;SDS011;63999;43.882;-0.310;2023-04-24T00:26:43;8.63;;;1.83;;
57565;SDS011;63999;43.882;-0.310;2023-04-24T00:29:10;7.85;;;1.80;;
57565;SDS011;63999;43.882;-0.310;2023-04-24T00:31:35;7.57;;;1.73;;
57565;SDS011;63999;43.882;-0.310;2023-04-24T00:34:02;8.68;;;2.00;;
57565;SDS011;63999;43.882;-0.310;2023-04-24T00:36:31;7.95;;;1.80;;
57565;SDS011;63999;43.882;-0.310;2023-04-24T00:38:57;8.95;;;1.63;;
57565;SDS011;63999;43.882;-0.310;2023-04-24T00:41:24;8.32;;;1.90;;
57565;SDS011;63999;43.882;-0.310;2023-04-24T00:43:51;7.75;;;1.50;;
57565;SDS011;63999;43.882;-0.310;2023-04-24T00:46:20;7.35;;;1.88;;
57565;SDS011;63999;43.882;-0.310;2023-04-24T00:48:47;7.43;;;1.90;;
57565;SDS011;63999;43.882;-0.310;2023-04-24T00:51:13;9.10;;;1.95;;
57565;SDS011;63999;43.882;-0.310;2023-04-24T00:53:42;9.80;;;1.95;;
57565;SDS011;63999;43.882;-0.310;2023-04-24T00:56:08;8.88;;;1.80;;
57565;SDS011;63999;43.882;-0.310;2023-04-24T00:58:36;9.40;;;2.05;;
57565;SDS011;63999;43.882;-0.310;2023-04-24T01:01:06;8.02;;;1.90;;
57565;SDS011;63999;43.882;-0.310;2023-04-24T01:03:32;5.22;;;1.48;;
57565;SDS011;63999;43.882;-0.310;2023-04-24T01:05:59;11.57;;;2.15;;
57565;SDS011;63999;43.882;-0.310;2023-04-24T01:08:26;10.50;;;2.10;;
57565;SDS011;63999;43.882;-0.310;2023-04-24T01:10:53;10.05;;;2.00;;
57565;SDS011;63999;43.882;-0.310;2023-04-24T01:13:20;8.48;;;1.90;;
57565;SDS011;63999;43.882;-0.310;2023-04-24T01:15:49;6.93;;;1.77;;
57565;SDS011;63999;43.882;-0.310;2023-04-24T01:18:15;12.15;;;2.45;;
57565;SDS011;63999;43.882;-0.310;2023-04-24T01:20:42;10.55;;;1.67;;
57565;SDS011;63999;43.882;-0.310;2023-04-24T01:23:11;6.55;;;1.70;;
57565;SDS011;63999;43.882;-0.310;2023-04-24T01:25:37;9.98;;;2.15;;
57565;SDS011;63999;43.882;-0.310;2023-04-24T01:28:04;7.88;;;1.70;;
57565;SDS011;63999;43.882;-0.310;2023-04-24T01:30:32;15.20;;;1.77;;
57565;SDS011;63999;43.882;-0.310;2023-04-24T01:32:58;8.20;;;2.00;;
57565;SDS011;63999;43.882;-0.310;2023-04-24T01:37:57;11.90;;;1.50;;
57565;SDS011;63999;43.882;-0.310;2023-04-24T01:40:26;7.90;;;1.75;;
57565;SDS011;63999;43.882;-0.310;2023-04-24T01:42:52;7.85;;;1.98;;
57565;SDS011;63999;43.882;-0.310;2023-04-24T01:45:20;9.85;;;1.70;;
57565;SDS011;63999;43.882;-0.310;2023-04-24T01:47:46;11.82;;;1.65;;
57565;SDS011;63999;43.882;-0.310;2023-04-24T01:50:14;9.55;;;1.80;;
57565;SDS011;63999;43.882;-0.310;2023-04-24T01:52:41;10.60;;;1.83;;
57565;SDS011;63999;43.882;-0.310;2023-04-24T01:55:10;8.50;;;1.90;;
57565;SDS011;63999;43.882;-0.310;2023-04-24T01:57:36;13.90;;;1.70;;
57565;SDS011;63999;43.882;-0.310;2023-04-24T02:00:02;8.65;;;1.77;;
57565;SDS011;63999;43.882;-0.310;2023-04-24T02:02:32;8.88;;;1.92;;
57565;SDS011;63999;43.882;-0.310;2023-04-24T02:04:58;7.68;;;1.88;;
57565;SDS011;63999;43.882;-0.310;2023-04-24T02:07:24;9.70;;;1.70;;
57565;SDS011;63999;43.882;-0.310;2023-04-24T02:09:50;5.45;;;1.70;;
57565;SDS011;63999;43.882;-0.310;2023-04-24T02:12:16;6.90;;;1.75;;
57565;SDS011;63999;43.882;-0.310;2023-04-24T02:14:45;8.88;;;1.70;;
57565;SDS011;63999;43.882;-0.310;2023-04-24T02:17:11;9.70;;;1.85;;
57565;SDS011;63999;43.882;-0.310;2023-04-24T02:19:38;13.63;;;2.25;;
57565;SDS011;63999;43.882;-0.310;2023-04-24T02:22:04;7.82;;;1.52;;
57565;SDS011;63999;43.882;-0.310;2023-04-24T02:24:30;7.93;;;1.73;;
57565;SDS011;63999;43.882;-0.310;2023-04-24T02:26:56;9.10;;;1.42;;
57565;SDS011;63999;43.882;-0.310;2023-04-24T02:29:23;7.65;;;1.75;;
57565;SDS011;63999;43.882;-0.310;2023-04-24T02:31:49;6.93;;;1.63;;
57565;SDS011;63999;43.882;-0.310;2023-04-24T02:34:18;6.88;;;1.63;;
57565;SDS011;63999;43.882;-0.310;2023-04-24T02:36:48;5.72;;;1.50;;
57565;SDS011;63999;43.882;-0.310;2023-04-24T02:39:14;7.13;;;1.50;;
57565;SDS011;63999;43.882;-0.310;2023-04-24T02:41:42;9.77;;;2.15;;
57565;SDS011;63999;43.882;-0.310;2023-04-24T02:44:08;10.27;;;2.10;;
57565;SDS011;63999;43.882;-0.310;2023-04-24T02:46:34;6.47;;;1.60;;
57565;SDS011;63999;43.882;-0.310;2023-04-24T02:49:00;9.50;;;1.95;;
57565;SDS011;63999;43.882;-0.310;2023-04-24T02:51:26;9.93;;;2.00;;
57565;SDS011;63999;43.882;-0.310;2023-04-24T02:53:52;10.27;;;1.85;;
57565;SDS011;63999;43.882;-0.310;2023-04-24T02:56:18;10.07;;;2.20;;
57565;SDS011;63999;43.882;-0.310;2023-04-24T02:58:44;8.15;;;1.83;;
57565;SDS011;63999;43.882;-0.310;2023-04-24T03:01:13;8.02;;;2.10;;
57565;SDS011;63999;43.882;-0.310;2023-04-24T03:03:42;7.97;;;1.50;;
57565;SDS011;63999;43.882;-0.310;2023-04-24T03:06:11;10.75;;;1.67;;
57565;SDS011;63999;43.882;-0.310;2023-04-24T03:08:37;10.45;;;2.28;;
57565;SDS011;63999;43.882;-0.310;2023-04-24T03:11:03;10.82;;;2.25;;
57565;SDS011;63999;43.882;-0.310;2023-04-24T03:13:32;9.85;;;1.95;;
57565;SDS011;63999;43.882;-0.310;2023-04-24T03:15:58;4.68;;;1.60;;
57565;SDS011;63999;43.882;-0.310;2023-04-24T03:18:24;12.68;;;1.95;;
57565;SDS011;63999;43.882;-0.310;2023-04-24T03:20:50;8.52;;;1.80;;
57565;SDS011;63999;43.882;-0.310;2023-04-24T03:23:22;13.13;;;2.38;;
57565;SDS011;63999;43.882;-0.310;2023-04-24T03:25:51;13.40;;;1.98;;
57565;SDS011;63999;43.882;-0.310;2023-04-24T03:28:18;10.30;;;1.90;;
57565;SDS011;63999;43.882;-0.310;2023-04-24T03:30:44;13.50;;;2.22;;
57565;SDS011;63999;43.882;-0.310;2023-04-24T03:33:11;7.75;;;1.80;;
57565;SDS011;63999;43.882;-0.310;2023-04-24T03:35:36;4.72;;;1.65;;
57565;SDS011;63999;43.882;-0.310;2023-04-24T03:38:06;11.90;;;2.25;;
57565;SDS011;63999;43.882;-0.310;2023-04-24T03:40:32;5.43;;;1.70;;
57565;SDS011;63999;43.882;-0.310;2023-04-24T03:43:01;6.07;;;1.55;;
57565;SDS011;63999;43.882;-0.310;2023-04-24T03:45:27;9.05;;;2.10;;
57565;SDS011;63999;43.882;-0.310;2023-04-24T03:47:53;9.13;;;1.70;;
57565;SDS011;63999;43.882;-0.310;2023-04-24T03:50:19;6.35;;;1.52;;
57565;SDS011;63999;43.882;-0.310;2023-04-24T03:52:45;6.22;;;1.60;;
57565;SDS011;63999;43.882;-0.310;2023-04-24T03:55:11;5.60;;;1.88;;
57565;SDS011;63999;43.882;-0.310;2023-04-24T03:57:39;5.90;;;1.88;;
57565;SDS011;63999;43.882;-0.310;2023-04-24T04:00:06;6.15;;;1.80;;
57565;SDS011;63999;43.882;-0.310;2023-04-24T04:02:35;5.88;;;1.90;;
57565;SDS011;63999;43.882;-0.310;2023-04-24T04:05:01;7.05;;;1.70;;
57565;SDS011;63999;43.882;-0.310;2023-04-24T04:07:27;6.07;;;1.55;;
57565;SDS011;63999;43.882;-0.310;2023-04-24T04:09:54;6.38;;;1.63;;
57565;SDS011;63999;43.882;-0.310;2023-04-24T04:12:20;5.93;;;1.90;;
57565;SDS011;63999;43.882;-0.310;2023-04-24T04:14:46;7.15;;;1.80;;
57565;SDS011;63999;43.882;-0.310;2023-04-24T04:17:15;4.10;;;1.55;;
57565;SDS011;63999;43.882;-0.310;2023-04-24T04:19:44;6.00;;;1.88;;
57565;SDS011;63999;43.882;-0.310;2023-04-24T04:22:10;4.93;;;1.70;;
57565;SDS011;63999;43.882;-0.310;2023-04-24T04:24:36;5.93;;;1.83;;
57565;SDS011;63999;43.882;-0.310;2023-04-24T04:27:03;4.53;;;1.27;;
57565;SDS011;63999;43.882;-0.310;2023-04-24T04:29:33;6.82;;;1.92;;
57565;SDS011;63999;43.882;-0.310;2023-04-24T04:32:00;6.85;;;1.80;;
57565;SDS011;63999;43.882;-0.310;2023-04-24T04:34:26;7.40;;;1.80;;
57565;SDS011;63999;43.882;-0.310;2023-04-24T04:36:52;6.88;;;1.90;;
57565;SDS011;63999;43.882;-0.310;2023-04-24T04:39:18;5.68;;;1.73;;
57565;SDS011;63999;43.882;-0.310;2023-04-24T04:41:44;7.18;;;2.10;;
57565;SDS011;63999;43.882;-0.310;2023-04-24T04:44:14;9.85;;;2.33;;
57565;SDS011;63999;43.882;-0.310;2023-04-24T04:46:40;7.15;;;2.10;;
57565;SDS011;63999;43.882;-0.310;2023-04-24T04:49:09;7.93;;;1.80;;
57565;SDS011;63999;43.882;-0.310;2023-04-24T04:51:38;7.55;;;2.00;;
57565;SDS011;63999;43.882;-0.310;2023-04-24T04:54:10;5.97;;;1.90;;
57565;SDS011;63999;43.882;-0.310;2023-04-24T04:56:36;6.07;;;2.13;;
57565;SDS011;63999;43.882;-0.310;2023-04-24T04:59:07;7.15;;;2.50;;
57565;SDS011;63999;43.882;-0.310;2023-04-24T05:01:33;6.63;;;1.85;;
57565;SDS011;63999;43.882;-0.310;2023-04-24T05:04:00;10.10;;;2.22;;
57565;SDS011;63999;43.882;-0.310;2023-04-24T05:06:35;6.75;;;2.25;;
57565;SDS011;63999;43.882;-0.310;2023-04-24T05:09:05;9.00;;;2.33;;
57565;SDS011;63999;43.882;-0.310;2023-04-24T05:11:37;8.63;;;2.65;;
57565;SDS011;63999;43.882;-0.310;2023-04-24T05:14:15;10.38;;;2.42;;
57565;SDS011;63999;43.882;-0.310;2023-04-24T05:16:50;10.13;;;2.60;;
57565;SDS011;63999;43.882;-0.310;2023-04-24T05:19:16;11.73;;;2.55;;
57565;SDS011;63999;43.882;-0.310;2023-04-24T05:21:43;6.03;;;2.30;;
57565;SDS011;63999;43.882;-0.310;2023-04-24T05:24:09;9.85;;;2.78;;
57565;SDS011;63999;43.882;-0.310;2023-04-24T05:26:35;10.90;;;2.92;;
57565;SDS011;63999;43.882;-0.310;2023-04-24T05:29:01;9.43;;;2.67;;
57565;SDS011;63999;43.882;-0.310;2023-04-24T05:31:28;9.52;;;2.42;;
57565;SDS011;63999;43.882;-0.310;2023-04-24T05:33:54;10.77;;;3.13;;
57565;SDS011;63999;43.882;-0.310;2023-04-24T05:36:20;7.85;;;2.50;;
57565;SDS011;63999;43.882;-0.310;2023-04-24T05:38:46;7.43;;;2.70;;
57565;SDS011;63999;43.882;-0.310;2023-04-24T05:41:34;9.57;;;2.40;;
57565;SDS011;63999;43.882;-0.310;2023-04-24T05:44:00;9.65;;;2.70;;
57565;SDS011;63999;43.882;-0.310;2023-04-24T05:46:26;7.05;;;2.13;;
57565;SDS011;63999;43.882;-0.310;2023-04-24T05:48:52;8.50;;;2.60;;
57565;SDS011;63999;43.882;-0.310;2023-04-24T05:51:18;8.93;;;2.50;;
57565;SDS011;63999;43.882;-0.310;2023-04-24T05:53:48;10.38;;;2.65;;
57565;SDS011;63999;43.882;-0.310;2023-04-24T05:56:14;7.68;;;2.50;;
57565;SDS011;63999;43.882;-0.310;2023-04-24T05:58:41;11.38;;;3.15;;
57565;SDS011;63999;43.882;-0.310;2023-04-24T06:01:11;9.23;;;2.95;;
57565;SDS011;63999;43.882;-0.310;2023-04-24T06:03:41;9.30;;;2.63;;
57565;SDS011;63999;43.882;-0.310;2023-04-24T06:06:10;9.25;;;2.25;;
57565;SDS011;63999;43.882;-0.310;2023-04-24T06:08:45;10.10;;;2.35;;
57565;SDS011;63999;43.882;-0.310;2023-04-24T06:11:11;9.45;;;2.65;;
57565;SDS011;63999;43.882;-0.310;2023-04-24T06:13:37;10.95;;;2.88;;
57565;SDS011;63999;43.882;-0.310;2023-04-24T06:16:06;8.07;;;2.63;;
57565;SDS011;63999;43.882;-0.310;2023-04-24T06:18:38;8.00;;;2.60;;
57565;SDS011;63999;43.882;-0.310;2023-04-24T06:21:04;8.43;;;2.40;;
57565;SDS011;63999;43.882;-0.310;2023-04-24T06:23:30;9.30;;;3.03;;
57565;SDS011;63999;43.882;-0.310;2023-04-24T06:25:58;7.20;;;3.10;;
57565;SDS011;63999;43.882;-0.310;2023-04-24T06:28:24;14.75;;;4.50;;
57565;SDS011;63999;43.882;-0.310;2023-04-24T06:30:50;12.32;;;4.95;;
57565;SDS011;63999;43.882;-0.310;2023-04-24T06:33:19;16.67;;;4.45;;
57565;SDS011;63999;43.882;-0.310;2023-04-24T06:35:47;11.48;;;4.38;;
57565;SDS011;63999;43.882;-0.310;2023-04-24T06:38:13;16.63;;;5.20;;
57565;SDS011;63999;43.882;-0.310;2023-04-24T06:40:41;14.80;;;5.28;;
57565;SDS011;63999;43.882;-0.310;2023-04-24T06:43:07;18.27;;;5.82;;
57565;SDS011;63999;43.882;-0.310;2023-04-24T06:45:33;9.75;;;4.00;;
57565;SDS011;63999;43.882;-0.310;2023-04-24T06:47:59;14.65;;;5.72;;
57565;SDS011;63999;43.882;-0.310;2023-04-24T06:50:28;10.05;;;4.10;;
57565;SDS011;63999;43.882;-0.310;2023-04-24T06:52:54;13.15;;;4.25;;
57565;SDS011;63999;43.882;-0.310;2023-04-24T06:55:20;13.48;;;4.65;;
57565;SDS011;63999;43.882;-0.310;2023-04-24T06:57:47;15.70;;;5.10;;
57565;SDS011;63999;43.882;-0.310;2023-04-24T07:00:13;13.88;;;4.40;;
57565;SDS011;63999;43.882;-0.310;2023-04-24T07:02:39;10.88;;;4.13;;
57565;SDS011;63999;43.882;-0.310;2023-04-24T07:05:05;9.45;;;3.45;;
57565;SDS011;63999;43.882;-0.310;2023-04-24T07:07:37;10.75;;;3.47;;
57565;SDS011;63999;43.882;-0.310;2023-04-24T07:10:05;9.43;;;3.30;;
57565;SDS011;63999;43.882;-0.310;2023-04-24T07:12:31;12.63;;;3.50;;
57565;SDS011;63999;43.882;-0.310;2023-04-24T07:15:01;12.63;;;3.33;;
57565;SDS011;63999;43.882;-0.310;2023-04-24T07:17:27;9.38;;;3.10;;
57565;SDS011;63999;43.882;-0.310;2023-04-24T07:19:53;13.13;;;3.03;;
57565;SDS011;63999;43.882;-0.310;2023-04-24T07:22:21;8.40;;;3.22;;
57565;SDS011;63999;43.882;-0.310;2023-04-24T07:28:01;8.82;;;2.75;;
57565;SDS011;63999;43.882;-0.310;2023-04-24T07:30:27;13.95;;;3.00;;
57565;SDS011;63999;43.882;-0.310;2023-04-24T07:32:54;9.10;;;2.70;;
57565;SDS011;63999;43.882;-0.310;2023-04-24T07:35:29;12.32;;;2.88;;
57565;SDS011;63999;43.882;-0.310;2023-04-24T07:37:58;11.20;;;2.40;;
57565;SDS011;63999;43.882;-0.310;2023-04-24T07:40:25;10.07;;;2.45;;
57565;SDS011;63999;43.882;-0.310;2023-04-24T07:42:51;8.73;;;1.83;;
57565;SDS011;63999;43.882;-0.310;2023-04-24T07:45:17;8.02;;;1.95;;
57565;SDS011;63999;43.882;-0.310;2023-04-24T07:47:43;10.23;;;2.08;;
57565;SDS011;63999;43.882;-0.310;2023-04-24T07:50:11;5.93;;;1.60;;
57565;SDS011;63999;43.882;-0.310;2023-04-24T07:53:19;6.90;;;2.08;;
57565;SDS011;63999;43.882;-0.310;2023-04-24T07:55:50;6.82;;;2.05;;
57565;SDS011;63999;43.882;-0.310;2023-04-24T07:58:16;6.82;;;1.83;;
57565;SDS011;63999;43.882;-0.310;2023-04-24T08:00:45;8.80;;;2.13;;
57565;SDS011;63999;43.882;-0.310;2023-04-24T08:03:14;5.60;;;1.80;;
57565;SDS011;63999;43.882;-0.310;2023-04-24T08:08:56;9.20;;;1.88;;
57565;SDS011;63999;43.882;-0.310;2023-04-24T08:11:26;6.20;;;2.20;;
57565;SDS011;63999;43.882;-0.310;2023-04-24T08:14:13;7.35;;;2.08;;
57565;SDS011;63999;43.882;-0.310;2023-04-24T08:17:01;6.63;;;1.80;;
57565;SDS011;63999;43.882;-0.310;2023-04-24T08:19:56;7.20;;;2.17;;
57565;SDS011;63999;43.882;-0.310;2023-04-24T08:26:09;8.88;;;2.45;;
57565;SDS011;63999;43.882;-0.310;2023-04-24T08:28:52;4.35;;;2.13;;
57565;SDS011;63999;43.882;-0.310;2023-04-24T08:31:21;12.20;;;2.97;;
57565;SDS011;63999;43.882;-0.310;2023-04-24T08:33:50;6.70;;;2.47;;
57565;SDS011;63999;43.882;-0.310;2023-04-24T08:36:15;10.18;;;3.28;;
57565;SDS011;63999;43.882;-0.310;2023-04-24T08:38:44;6.88;;;2.30;;
57565;SDS011;63999;43.882;-0.310;2023-04-24T08:41:11;6.50;;;2.85;;
57565;SDS011;63999;43.882;-0.310;2023-04-24T08:43:41;7.55;;;3.20;;
57565;SDS011;63999;43.882;-0.310;2023-04-24T08:46:07;6.75;;;2.67;;
57565;SDS011;63999;43.882;-0.310;2023-04-24T08:48:35;9.68;;;3.05;;
57565;SDS011;63999;43.882;-0.310;2023-04-24T08:53:36;7.72;;;2.95;;
57565;SDS011;63999;43.882;-0.310;2023-04-24T08:56:02;7.05;;;2.97;;
57565;SDS011;63999;43.882;-0.310;2023-04-24T08:58:29;11.77;;;3.58;;
57565;SDS011;63999;43.882;-0.310;2023-04-24T09:00:56;6.55;;;2.80;;
57565;SDS011;63999;43.882;-0.310;2023-04-24T09:03:22;7.10;;;2.63;;
57565;SDS011;63999;43.882;-0.310;2023-04-24T09:05:53;6.88;;;3.10;;
57565;SDS011;63999;43.882;-0.310;2023-04-24T09:08:20;10.07;;;4.00;;
57565;SDS011;63999;43.882;-0.310;2023-04-24T09:10:49;7.32;;;3.05;;
57565;SDS011;63999;43.882;-0.310;2023-04-24T09:13:19;11.05;;;3.80;;
57565;SDS011;63999;43.882;-0.310;2023-04-24T09:15:45;8.45;;;3.13;;
57565;SDS011;63999;43.882;-0.310;2023-04-24T09:18:11;9.98;;;3.95;;
57565;SDS011;63999;43.882;-0.310;2023-04-24T09:23:39;9.77;;;3.92;;
57565;SDS011;63999;43.882;-0.310;2023-04-24T09:26:07;10.38;;;3.90;;
57565;SDS011;63999;43.882;-0.310;2023-04-24T09:28:36;13.05;;;4.28;;
57565;SDS011;63999;43.882;-0.310;2023-04-24T09:33:34;12.10;;;3.72;;
57565;SDS011;63999;43.882;-0.310;2023-04-24T09:36:03;8.77;;;3.13;;
57565;SDS011;63999;43.882;-0.310;2023-04-24T09:38:36;5.90;;;2.78;;
57565;SDS011;63999;43.882;-0.310;2023-04-24T09:41:06;6.75;;;2.97;;
57565;SDS011;63999;43.882;-0.310;2023-04-24T09:43:36;9.40;;;3.40;;
57565;SDS011;63999;43.882;-0.310;2023-04-24T09:46:06;8.10;;;3.50;;
57565;SDS011;63999;43.882;-0.310;2023-04-24T09:48:35;9.07;;;3.25;;
57565;SDS011;63999;43.882;-0.310;2023-04-24T09:51:02;6.82;;;3.13;;
57565;SDS011;63999;43.882;-0.310;2023-04-24T09:53:29;8.40;;;3.60;;
57565;SDS011;63999;43.882;-0.310;2023-04-24T09:56:02;7.63;;;3.28;;
57565;SDS011;63999;43.882;-0.310;2023-04-24T09:58:43;12.93;;;4.00;;
57565;SDS011;63999;43.882;-0.310;2023-04-24T10:01:12;7.88;;;2.97;;
57565;SDS011;63999;43.882;-0.310;2023-04-24T10:03:38;8.85;;;3.50;;
57565;SDS011;63999;43.882;-0.310;2023-04-24T10:06:07;11.48;;;3.60;;
57565;SDS011;63999;43.882;-0.310;2023-04-24T10:08:38;7.88;;;3.45;;
57565;SDS011;63999;43.882;-0.310;2023-04-24T10:11:04;7.38;;;3.33;;
57565;SDS011;63999;43.882;-0.310;2023-04-24T10:13:30;6.28;;;2.60;;
57565;SDS011;63999;43.882;-0.310;2023-04-24T10:16:00;7.05;;;3.08;;
57565;SDS011;63999;43.882;-0.310;2023-04-24T10:18:27;8.18;;;3.17;;
57565;SDS011;63999;43.882;-0.310;2023-04-24T10:20:53;8.20;;;3.00;;
57565;SDS011;63999;43.882;-0.310;2023-04-24T10:23:20;7.45;;;3.13;;
57565;SDS011;63999;43.882;-0.310;2023-04-24T10:25:46;7.45;;;3.05;;
57565;SDS011;63999;43.882;-0.310;2023-04-24T10:28:14;7.22;;;3.35;;
57565;SDS011;63999;43.882;-0.310;2023-04-24T10:30:41;7.00;;;3.00;;
57565;SDS011;63999;43.882;-0.310;2023-04-24T10:33:08;7.75;;;3.05;;
57565;SDS011;63999;43.882;-0.310;2023-04-24T10:35:37;5.72;;;2.42;;
57565;SDS011;63999;43.882;-0.310;2023-04-24T10:40:41;7.45;;;3.58;;
57565;SDS011;63999;43.882;-0.310;2023-04-24T10:43:11;5.38;;;2.75;;
57565;SDS011;63999;43.882;-0.310;2023-04-24T10:45:42;6.10;;;2.80;;
57565;SDS011;63999;43.882;-0.310;2023-04-24T10:48:27;7.20;;;2.85;;
57565;SDS011;63999;43.882;-0.310;2023-04-24T10:50:56;7.55;;;2.42;;
57565;SDS011;63999;43.882;-0.310;2023-04-24T10:53:23;6.97;;;2.67;;
57565;SDS011;63999;43.882;-0.310;2023-04-24T10:58:42;7.00;;;2.80;;
57565;SDS011;63999;43.882;-0.310;2023-04-24T11:01:26;9.48;;;2.92;;
57565;SDS011;63999;43.882;-0.310;2023-04-24T11:03:55;6.00;;;2.80;;
57565;SDS011;63999;43.882;-0.310;2023-04-24T11:06:29;6.68;;;2.88;;
57565;SDS011;63999;43.882;-0.310;2023-04-24T11:09:10;6.32;;;2.78;;
57565;SDS011;63999;43.882;-0.310;2023-04-24T11:11:44;8.52;;;2.75;;
57565;SDS011;63999;43.882;-0.310;2023-04-24T11:14:14;7.28;;;2.50;;
57565;SDS011;63999;43.882;-0.310;2023-04-24T11:21:58;7.50;;;2.42;;
57565;SDS011;63999;43.882;-0.310;2023-04-24T11:24:39;16.42;;;2.72;;
57565;SDS011;63999;43.882;-0.310;2023-04-24T11:27:15;7.97;;;2.75;;
57565;SDS011;63999;43.882;-0.310;2023-04-24T11:29:48;9.23;;;2.83;;
57565;SDS011;63999;43.882;-0.310;2023-04-24T11:32:29;7.80;;;2.47;;
57565;SDS011;63999;43.882;-0.310;2023-04-24T11:35:05;7.55;;;2.50;;
57565;SDS011;63999;43.882;-0.310;2023-04-24T11:37:42;7.68;;;2.50;;
57565;SDS011;63999;43.882;-0.310;2023-04-24T11:40:15;7.47;;;2.30;;
57565;SDS011;63999;43.882;-0.310;2023-04-24T11:42:46;10.13;;;2.65;;
57565;SDS011;63999;43.882;-0.310;2023-04-24T11:45:23;10.00;;;2.67;;
57565;SDS011;63999;43.882;-0.310;2023-04-24T11:47:51;7.47;;;2.35;;
57565;SDS011;63999;43.882;-0.310;2023-04-24T11:50:18;6.85;;;2.40;;
57565;SDS011;63999;43.882;-0.310;2023-04-24T11:52:48;5.25;;;2.08;;
57565;SDS011;63999;43.882;-0.310;2023-04-24T11:57:59;6.40;;;2.10;;
57565;SDS011;63999;43.882;-0.310;2023-04-24T12:00:29;7.55;;;2.20;;
57565;SDS011;63999;43.882;-0.310;2023-04-24T12:03:03;8.57;;;2.22;;
57565;SDS011;63999;43.882;-0.310;2023-04-24T12:05:30;10.25;;;2.33;;
57565;SDS011;63999;43.882;-0.310;2023-04-24T12:08:00;8.27;;;3.00;;
57565;SDS011;63999;43.882;-0.310;2023-04-24T12:10:30;13.20;;;2.38;;
57565;SDS011;63999;43.882;-0.310;2023-04-24T12:12:57;5.35;;;2.03;;
57565;SDS011;63999;43.882;-0.310;2023-04-24T12:15:25;7.82;;;2.35;;
57565;SDS011;63999;43.882;-0.310;2023-04-24T12:17:52;7.70;;;2.10;;
57565;SDS011;63999;43.882;-0.310;2023-04-24T12:20:32;7.20;;;2.22;;
57565;SDS011;63999;43.882;-0.310;2023-04-24T12:22:59;11.75;;;2.33;;
57565;SDS011;63999;43.882;-0.310;2023-04-24T12:25:27;7.47;;;2.20;;
57565;SDS011;63999;43.882;-0.310;2023-04-24T12:27:54;10.35;;;2.70;;
57565;SDS011;63999;43.882;-0.310;2023-04-24T12:30:30;8.55;;;2.53;;
57565;SDS011;63999;43.882;-0.310;2023-04-24T12:32:58;8.02;;;2.40;;
57565;SDS011;63999;43.882;-0.310;2023-04-24T12:35:26;8.13;;;2.05;;
57565;SDS011;63999;43.882;-0.310;2023-04-24T12:40:46;7.97;;;2.63;;
57565;SDS011;63999;43.882;-0.310;2023-04-24T12:43:15;6.07;;;2.45;;
57565;SDS011;63999;43.882;-0.310;2023-04-24T12:45:43;6.68;;;2.22;;
57565;SDS011;63999;43.882;-0.310;2023-04-24T12:48:12;4.07;;;2.17;;
57565;SDS011;63999;43.882;-0.310;2023-04-24T12:50:42;5.82;;;2.50;;
57565;SDS011;63999;43.882;-0.310;2023-04-24T12:53:09;7.93;;;2.55;;
57565;SDS011;63999;43.882;-0.310;2023-04-24T12:55:35;5.22;;;2.38;;
57565;SDS011;63999;43.882;-0.310;2023-04-24T12:58:02;6.90;;;2.42;;
57565;SDS011;63999;43.882;-0.310;2023-04-24T13:00:31;5.28;;;2.38;;
57565;SDS011;63999;43.882;-0.310;2023-04-24T13:02:57;5.38;;;2.42;;
57565;SDS011;63999;43.882;-0.310;2023-04-24T13:05:23;7.82;;;3.17;;
57565;SDS011;63999;43.882;-0.310;2023-04-24T13:07:50;8.55;;;2.95;;
57565;SDS011;63999;43.882;-0.310;2023-04-24T13:10:16;5.82;;;2.70;;
57565;SDS011;63999;43.882;-0.310;2023-04-24T13:12:42;8.50;;;2.90;;
57565;SDS011;63999;43.882;-0.310;2023-04-24T13:15:11;7.97;;;3.17;;
57565;SDS011;63999;43.882;-0.310;2023-04-24T13:17:40;8.07;;;3.28;;
57565;SDS011;63999;43.882;-0.310;2023-04-24T13:20:09;6.60;;;3.08;;
57565;SDS011;63999;43.882;-0.310;2023-04-24T13:22:35;7.35;;;3.00;;
57565;SDS011;63999;43.882;-0.310;2023-04-24T13:25:05;8.45;;;3.20;;
57565;SDS011;63999;43.882;-0.310;2023-04-24T13:27:32;6.93;;;3.20;;
57565;SDS011;63999;43.882;-0.310;2023-04-24T13:29:58;7.43;;;2.83;;
57565;SDS011;63999;43.882;-0.310;2023-04-24T13:32:24;7.10;;;2.90;;
57565;SDS011;63999;43.882;-0.310;2023-04-24T13:34:53;8.20;;;3.17;;
57565;SDS011;63999;43.882;-0.310;2023-04-24T13:37:19;5.75;;;2.95;;
57565;SDS011;63999;43.882;-0.310;2023-04-24T13:39:46;7.47;;;2.65;;
57565;SDS011;63999;43.882;-0.310;2023-04-24T13:42:16;9.18;;;2.72;;
57565;SDS011;63999;43.882;-0.310;2023-04-24T13:44:43;8.35;;;3.33;;
57565;SDS011;63999;43.882;-0.310;2023-04-24T13:47:12;5.90;;;3.17;;
57565;SDS011;63999;43.882;-0.310;2023-04-24T13:49:41;5.85;;;2.47;;
57565;SDS011;63999;43.882;-0.310;2023-04-24T13:52:08;6.88;;;3.08;;
57565;SDS011;63999;43.882;-0.310;2023-04-24T13:54:37;7.68;;;3.10;;
57565;SDS011;63999;43.882;-0.310;2023-04-24T13:57:06;7.15;;;3.17;;
57565;SDS011;63999;43.882;-0.310;2023-04-24T13:59:32;9.68;;;3.40;;
57565;SDS011;63999;43.882;-0.310;2023-04-24T14:01:58;5.97;;;2.55;;
57565;SDS011;63999;43.882;-0.310;2023-04-24T14:04:24;5.18;;;2.47;;
57565;SDS011;63999;43.882;-0.310;2023-04-24T14:06:50;6.03;;;2.60;;
57565;SDS011;63999;43.882;-0.310;2023-04-24T14:09:16;8.27;;;3.15;;
57565;SDS011;63999;43.882;-0.310;2023-04-24T14:11:47;6.13;;;3.05;;
57565;SDS011;63999;43.882;-0.310;2023-04-24T14:14:13;9.23;;;2.92;;
57565;SDS011;63999;43.882;-0.310;2023-04-24T14:16:43;5.35;;;3.00;;
57565;SDS011;63999;43.882;-0.310;2023-04-24T14:19:12;6.07;;;2.30;;
57565;SDS011;63999;43.882;-0.310;2023-04-24T14:21:37;5.47;;;2.80;;
57565;SDS011;63999;43.882;-0.310;2023-04-24T14:24:07;5.88;;;2.80;;
57565;SDS011;63999;43.882;-0.310;2023-04-24T14:26:34;7.38;;;2.90;;
57565;SDS011;63999;43.882;-0.310;2023-04-24T14:29:00;5.85;;;3.10;;
57565;SDS011;63999;43.882;-0.310;2023-04-24T14:31:26;6.22;;;2.85;;
57565;SDS011;63999;43.882;-0.310;2023-04-24T14:33:55;4.90;;;2.50;;
57565;SDS011;63999;43.882;-0.310;2023-04-24T14:36:22;7.05;;;3.00;;
57565;SDS011;63999;43.882;-0.310;2023-04-24T14:38:49;5.57;;;2.80;;
57565;SDS011;63999;43.882;-0.310;2023-04-24T14:41:18;7.47;;;2.75;;
57565;SDS011;63999;43.882;-0.310;2023-04-24T14:43:44;7.30;;;3.15;;
57565;SDS011;63999;43.882;-0.310;2023-04-24T14:46:14;7.32;;;2.80;;
57565;SDS011;63999;43.882;-0.310;2023-04-24T14:48:42;7.45;;;2.85;;
57565;SDS011;63999;43.882;-0.310;2023-04-24T14:51:14;7.13;;;3.00;;
57565;SDS011;63999;43.882;-0.310;2023-04-24T14:53:44;6.38;;;2.58;;
57565;SDS011;63999;43.882;-0.310;2023-04-24T14:56:25;6.45;;;2.90;;
57565;SDS011;63999;43.882;-0.310;2023-04-24T14:58:58;8.27;;;3.15;;
57565;SDS011;63999;43.882;-0.310;2023-04-24T15:01:39;5.35;;;2.75;;
57565;SDS011;63999;43.882;-0.310;2023-04-24T15:04:38;6.85;;;2.58;;
57565;SDS011;63999;43.882;-0.310;2023-04-24T15:07:33;5.32;;;2.83;;
57565;SDS011;63999;43.882;-0.310;2023-04-24T15:10:27;6.03;;;2.80;;
57565;SDS011;63999;43.882;-0.310;2023-04-24T15:13:26;8.93;;;3.10;;
57565;SDS011;63999;43.882;-0.310;2023-04-24T15:23:02;7.38;;;3.08;;
57565;SDS011;63999;43.882;-0.310;2023-04-24T15:25:33;6.72;;;2.72;;